Decoded Metar for KSTJ (ST. JOSEPH in MO, USA) (IATA:STJ) | Meteo·Mobile Aviation Weather
aviador You're here:

KSTJ Decoded Metar

ST. JOSEPH in MO, USA
Report Time2019-02-22 13:53:00
UTC Time2019-02-22 14:26:55
Flight Rules vfr VFR
Wind100° at 04 kt
W.Decomp.*RWY 13: 3.3 kt HW 2.2 kt LCW
RWY 17: 1.1 kt HW 3.8 kt LCW
W.Rank100° ranks 23
Current wind is below 100° avg. (6.5)
Visibility9999 m
Phenomena:N/A
Clouds:N/A
Expected CloudBase > 2,400 ft AGL from Temp-Dew spread
CeilingNone
Temp-2°C (ISA -15)
Dew Point-8°C (64% RH)
AAT-6.3°C
QNH1025 hPa
Density Alt-1,434 ft
Elevation810 ft
Report Wrong Elevation
Raw Report
KSTJ 221353Z 10004KT 7SM CLR M02/M08 A3026 RMK AO2 SLP255
T10221078=

Extra information for KSTJ:More info

Metar Taf Metar & Taf Last 4 Metars F.Rules Stats Wind Profile Meteogram Temp Stats Airport Information Weather charts Add Link Nearby VenuesMetar ALERT Operation Metar Decoded Social comments

AIRNAV info for KSTJ